Pagina principale
METAR-TAF:

METAR-TAF

Aeroporti :

Ağrı, Turchia

latitudine: 39-39-16N, longitudine: 43-01-38E, altezza: 1665 m

Osservazione

Il bollettino è stato emesso 12 ore e 47 minuti fa, alle 14:50 UTC
Vento 4 kt da sud
Temperature 15°C
Umidità 14%
Pressione 1026 hPa
Visibilità 10 km o più
nessuna nube inferiore a 1500 m e nessun cumulonembo

METAR: LTCO 231450Z 17004KT CAVOK 15/M12 Q1026

Ora: 06:37 (03:37 UTC)

Previsione

Il bollettino è stato emesso 1 ora e 57 minuti fa, alle 01:40 UTC
Previsione valida dal 24 alle 03 UTC al 24 alle 12 UTC
Vento 2 kt da direzioni variabili
Visibilità 10 km o più
nessuna nube inferiore a 1500 m e nessun cumulonembo

TAF: LTCO 240140Z 2403/2412 VRB02KT CAVOK

Osservazioni e previsioni meteorologiche di più di 4000 aeroporti (messaggi METAR e TAF).

Le stazioni disponibili sono rappresentate dai dischi gialli e rossi sulla carta.

Puntare il mouse per vedere il nome della stazione.

Clicca sopra per visualizzare le osservazioni e previsioni meteorologiche.

Per cambiare la mappa : fare clic sui pulsanti verdi con una croce nera per ingrandire, il pulsante verde con un trattino per diminuire, o sulla freccia verde per le mappe adiacenti.


METAR-TAF: